createdAt,value
2023-08-15T00:00:28.123Z,19.52
2023-08-15T00:01:21.547Z,19.49
2023-08-15T00:01:55.024Z,19.48
2023-08-15T00:02:28.575Z,19.48
2023-08-15T00:03:02.171Z,19.49
2023-08-15T00:03:35.912Z,19.49
2023-08-15T00:04:09.480Z,19.49
2023-08-15T00:04:43.172Z,19.51
2023-08-15T00:05:17.077Z,19.51
2023-08-15T00:06:11.276Z,19.48
2023-08-15T00:06:44.754Z,19.46
2023-08-15T00:07:18.679Z,19.48
2023-08-15T00:07:52.509Z,19.49
2023-08-15T00:08:26.152Z,19.50
2023-08-15T00:09:01.221Z,19.50
2023-08-15T00:09:34.715Z,19.51
2023-08-15T00:10:08.738Z,19.49
2023-08-15T00:10:42.268Z,19.51
2023-08-15T00:11:15.758Z,19.51
2023-08-15T00:11:49.067Z,19.51
2023-08-15T00:12:22.407Z,19.50
2023-08-15T00:12:57.910Z,19.49
2023-08-15T00:13:35.179Z,19.48
2023-08-15T00:14:11.118Z,19.46
2023-08-15T00:14:44.637Z,19.44
2023-08-15T00:15:19.366Z,19.44
2023-08-15T00:15:52.882Z,19.43
2023-08-15T00:16:26.337Z,19.40
2023-08-15T00:16:59.905Z,19.41
2023-08-15T00:17:33.454Z,19.41
2023-08-15T00:18:07.918Z,19.41
2023-08-15T00:18:44.182Z,19.41
2023-08-15T00:19:17.580Z,19.39
2023-08-15T00:19:51.254Z,19.39
2023-08-15T00:20:27.312Z,19.38
2023-08-15T00:21:00.765Z,19.36
2023-08-15T00:21:34.191Z,19.35
2023-08-15T00:22:07.767Z,19.34
2023-08-15T00:22:41.328Z,19.32
2023-08-15T00:23:15.632Z,19.30
2023-08-15T00:23:49.103Z,19.30
2023-08-15T00:24:22.544Z,19.28
2023-08-15T00:24:55.866Z,19.27
2023-08-15T00:25:29.247Z,19.25
2023-08-15T00:26:03.004Z,19.23
2023-08-15T00:26:36.629Z,19.21
2023-08-15T00:27:10.198Z,19.20
2023-08-15T00:27:43.611Z,19.18
2023-08-15T00:28:16.977Z,19.16
2023-08-15T00:28:50.363Z,19.14
2023-08-15T00:29:23.734Z,19.12
2023-08-15T00:29:57.017Z,19.10
2023-08-15T00:30:33.921Z,19.06
2023-08-15T00:31:08.179Z,19.05
2023-08-15T00:31:41.633Z,19.03
2023-08-15T00:32:14.992Z,19.01
2023-08-15T00:32:50.194Z,19.00
2023-08-15T00:33:23.470Z,18.99
2023-08-15T00:33:56.841Z,18.98
2023-08-15T00:34:30.166Z,18.97
2023-08-15T00:35:07.622Z,18.95
2023-08-15T00:35:44.093Z,18.94
2023-08-15T00:36:18.907Z,18.92
2023-08-15T00:36:52.253Z,18.89
2023-08-15T00:37:25.561Z,18.87
2023-08-15T00:37:58.893Z,18.86
2023-08-15T00:38:32.319Z,18.83
2023-08-15T00:39:05.740Z,18.83
2023-08-15T00:39:41.883Z,18.81
2023-08-15T00:40:16.736Z,18.79
2023-08-15T00:40:50.069Z,18.79
2023-08-15T00:41:23.409Z,18.79
2023-08-15T00:41:56.806Z,18.78
2023-08-15T00:42:30.138Z,18.77
2023-08-15T00:43:04.827Z,18.75
2023-08-15T00:43:39.186Z,18.74
2023-08-15T00:44:12.457Z,18.73
2023-08-15T00:44:45.939Z,18.72
2023-08-15T00:45:23.053Z,18.70
2023-08-15T00:46:01.120Z,18.72
2023-08-15T00:46:34.961Z,18.62
2023-08-15T00:47:09.003Z,18.70
2023-08-15T00:47:42.673Z,18.71
2023-08-15T00:48:18.271Z,18.69
2023-08-15T00:48:52.022Z,18.71
2023-08-15T00:49:25.414Z,18.72
2023-08-15T00:49:59.821Z,18.72
2023-08-15T00:50:33.697Z,18.72
2023-08-15T00:51:09.379Z,18.73
2023-08-15T00:51:43.245Z,18.74
2023-08-15T00:52:19.805Z,18.74
2023-08-15T00:52:54.350Z,18.74
2023-08-15T00:53:30.092Z,18.75
2023-08-15T00:54:03.602Z,18.75
2023-08-15T00:54:37.558Z,18.75
2023-08-15T00:55:11.279Z,18.76
2023-08-15T00:55:46.947Z,18.76
2023-08-15T00:56:21.870Z,18.76
2023-08-15T00:56:55.405Z,18.76
2023-08-15T00:57:28.901Z,18.76
2023-08-15T00:58:02.324Z,18.77
2023-08-15T00:58:36.493Z,18.77
2023-08-15T00:59:10.041Z,18.76
2023-08-15T00:59:44.965Z,18.77
2023-08-15T01:00:20.635Z,18.76
2023-08-15T01:00:54.142Z,18.77
2023-08-15T01:01:29.950Z,18.77
2023-08-15T01:02:04.089Z,18.77
2023-08-15T01:02:38.082Z,18.72
2023-08-15T01:03:13.889Z,18.76
2023-08-15T01:03:48.187Z,18.75
2023-08-15T01:04:21.978Z,18.75
2023-08-15T01:04:55.604Z,18.74
2023-08-15T01:05:30.599Z,18.73
2023-08-15T01:06:04.207Z,18.73
2023-08-15T01:06:37.724Z,18.73
2023-08-15T01:07:11.741Z,18.75
2023-08-15T01:07:45.925Z,18.75
2023-08-15T01:08:19.488Z,18.73
2023-08-15T01:08:53.767Z,18.72
2023-08-15T01:09:27.057Z,18.71
2023-08-15T01:10:00.434Z,18.71
2023-08-15T01:10:34.000Z,18.69
2023-08-15T01:11:07.438Z,18.69
2023-08-15T01:12:07.561Z,18.69
2023-08-15T01:12:45.682Z,18.63
2023-08-15T01:13:31.125Z,18.63
2023-08-15T01:14:09.832Z,18.60
2023-08-15T01:14:56.541Z,18.57
2023-08-15T01:15:33.555Z,18.54
2023-08-15T01:16:12.681Z,18.51
2023-08-15T01:16:49.674Z,18.49
2023-08-15T01:17:32.854Z,18.48
2023-08-15T01:18:14.422Z,18.46
2023-08-15T01:18:52.933Z,18.43
2023-08-15T01:19:48.286Z,18.35
2023-08-15T01:20:34.685Z,18.31
2023-08-15T01:21:08.887Z,18.28
2023-08-15T01:21:49.290Z,18.26
2023-08-15T01:22:29.561Z,18.25
2023-08-15T01:23:07.653Z,18.24
2023-08-15T01:23:45.010Z,18.24
2023-08-15T01:24:18.648Z,18.22
2023-08-15T01:24:52.645Z,18.21
2023-08-15T01:25:27.301Z,18.21
2023-08-15T01:26:00.759Z,18.20
2023-08-15T01:26:39.599Z,18.21
2023-08-15T01:27:13.734Z,18.20
2023-08-15T01:27:47.115Z,18.19
2023-08-15T01:28:20.540Z,18.19
2023-08-15T01:28:54.658Z,18.20
2023-08-15T01:29:28.112Z,18.17
2023-08-15T01:30:02.075Z,18.20
2023-08-15T01:30:35.774Z,18.21
2023-08-15T01:31:23.892Z,18.19
2023-08-15T01:32:13.765Z,18.17
2023-08-15T01:32:54.392Z,18.14
2023-08-15T01:33:35.770Z,18.13
2023-08-15T01:34:18.856Z,18.13
2023-08-15T01:35:00.335Z,18.12
2023-08-15T01:35:44.839Z,18.11
2023-08-15T01:36:26.375Z,18.12
2023-08-15T01:37:10.417Z,18.11
2023-08-15T01:37:46.406Z,18.11
2023-08-15T01:38:55.775Z,18.11
2023-08-15T01:39:32.879Z,18.08
2023-08-15T01:40:10.647Z,18.09
2023-08-15T01:40:49.162Z,18.10
2023-08-15T01:41:26.520Z,18.11
2023-08-15T01:42:03.017Z,18.11
2023-08-15T01:42:42.240Z,18.11
2023-08-15T01:43:18.050Z,18.11
2023-08-15T01:43:55.941Z,18.12
2023-08-15T01:44:31.950Z,18.12
2023-08-15T01:45:06.201Z,18.12
2023-08-15T01:45:39.766Z,18.13
2023-08-15T01:46:15.507Z,18.13
2023-08-15T01:46:49.236Z,18.12
2023-08-15T01:47:24.948Z,18.14
2023-08-15T01:47:59.234Z,18.14
2023-08-15T01:48:32.734Z,18.13
2023-08-15T01:50:43.648Z,18.08
2023-08-15T01:51:16.902Z,18.04
2023-08-15T01:51:52.068Z,18.03
2023-08-15T01:52:25.406Z,18.03
2023-08-15T01:52:58.766Z,18.03
2023-08-15T01:53:31.995Z,17.99
2023-08-15T01:54:05.394Z,17.98
2023-08-15T01:54:38.681Z,17.99
2023-08-15T01:55:12.325Z,17.97
2023-08-15T01:55:45.592Z,17.96
2023-08-15T01:56:18.829Z,17.95
2023-08-15T01:56:52.678Z,17.93
2023-08-15T01:57:26.054Z,17.91
2023-08-15T01:58:00.156Z,17.91
2023-08-15T01:58:33.487Z,17.90
2023-08-15T01:59:07.773Z,17.90
2023-08-15T01:59:41.022Z,17.87
2023-08-15T02:00:14.513Z,17.88
2023-08-15T02:00:50.477Z,17.88
2023-08-15T02:01:23.766Z,17.82
2023-08-15T02:01:57.141Z,17.85
2023-08-15T02:02:30.646Z,17.84
2023-08-15T02:03:04.496Z,17.83
2023-08-15T02:03:38.021Z,17.81
2023-08-15T02:04:11.277Z,17.81
2023-08-15T02:04:44.646Z,17.79
2023-08-15T02:05:18.426Z,17.79
2023-08-15T02:05:51.738Z,17.78
2023-08-15T02:06:27.127Z,17.75
2023-08-15T02:07:00.610Z,17.73
2023-08-15T02:07:33.915Z,17.71
2023-08-15T02:08:07.519Z,17.69
2023-08-15T02:08:40.877Z,17.66
2023-08-15T02:09:14.200Z,17.64
2023-08-15T02:09:47.493Z,17.62
2023-08-15T02:10:20.868Z,17.62
2023-08-15T02:10:55.350Z,17.59
2023-08-15T02:11:28.709Z,17.58
2023-08-15T02:12:02.355Z,17.57
2023-08-15T02:12:35.819Z,17.54
2023-08-15T02:13:09.157Z,17.56
2023-08-15T02:13:42.406Z,17.55
2023-08-15T02:14:15.718Z,17.55
2023-08-15T02:14:49.032Z,17.52
2023-08-15T02:15:22.425Z,17.52
2023-08-15T02:15:55.903Z,17.52
2023-08-15T02:16:29.397Z,17.52
2023-08-15T02:17:02.666Z,17.52
2023-08-15T02:17:36.246Z,17.52
2023-08-15T02:18:09.782Z,17.52
2023-08-15T02:18:43.300Z,17.51
2023-08-15T02:19:16.939Z,17.50
2023-08-15T02:19:50.564Z,17.49
2023-08-15T02:20:23.827Z,17.49
2023-08-15T02:20:57.398Z,17.49
2023-08-15T02:21:31.217Z,17.48
2023-08-15T02:22:04.628Z,17.47
2023-08-15T02:22:38.001Z,17.48
2023-08-15T02:23:13.145Z,17.47
2023-08-15T02:23:46.394Z,17.47
2023-08-15T02:24:19.779Z,17.47
2023-08-15T02:24:53.044Z,17.47
2023-08-15T02:25:26.375Z,17.46
2023-08-15T02:25:59.771Z,17.47
2023-08-15T02:26:37.101Z,17.46
2023-08-15T02:27:10.484Z,17.44
2023-08-15T02:27:43.788Z,17.44
2023-08-15T02:28:17.025Z,17.44
2023-08-15T02:28:50.237Z,17.45
2023-08-15T02:29:25.885Z,17.45
2023-08-15T02:29:59.334Z,17.45
2023-08-15T02:30:38.488Z,17.46
2023-08-15T02:31:12.440Z,17.45
2023-08-15T02:31:49.298Z,17.46
2023-08-15T02:32:22.569Z,17.44
2023-08-15T02:32:55.956Z,17.45
2023-08-15T02:33:29.222Z,17.44
2023-08-15T02:34:02.516Z,17.44
2023-08-15T02:34:35.883Z,17.44
2023-08-15T02:35:10.538Z,17.43
2023-08-15T02:35:43.709Z,17.45
2023-08-15T02:36:17.009Z,17.46
2023-08-15T02:36:50.610Z,17.44
2023-08-15T02:37:24.730Z,17.46
2023-08-15T02:37:58.079Z,17.46
2023-08-15T02:38:31.362Z,17.46
2023-08-15T02:39:05.062Z,17.46
2023-08-15T02:39:38.352Z,17.44
2023-08-15T02:40:11.855Z,17.41
2023-08-15T02:40:45.175Z,17.39
2023-08-15T02:41:18.520Z,17.37
2023-08-15T02:41:52.749Z,17.36
2023-08-15T02:42:27.201Z,17.35
2023-08-15T02:43:00.496Z,17.33
2023-08-15T02:43:33.826Z,17.32
2023-08-15T02:44:07.168Z,17.31
2023-08-15T02:44:40.538Z,17.30
2023-08-15T02:45:13.830Z,17.30
2023-08-15T02:45:47.070Z,17.29
2023-08-15T02:46:21.282Z,17.29
2023-08-15T02:46:54.578Z,17.28
2023-08-15T02:47:28.097Z,17.28
2023-08-15T02:48:01.308Z,17.27
2023-08-15T02:48:36.342Z,17.26
2023-08-15T02:49:09.584Z,17.26
2023-08-15T02:49:42.832Z,17.24
2023-08-15T02:50:16.534Z,17.25
2023-08-15T02:50:49.962Z,17.24
2023-08-15T02:51:23.222Z,17.25
2023-08-15T02:51:56.685Z,17.24
2023-08-15T02:52:30.049Z,17.24
2023-08-15T02:53:03.437Z,17.22
2023-08-15T02:53:37.582Z,17.24
2023-08-15T02:54:10.960Z,17.21
2023-08-15T02:54:44.361Z,17.20
2023-08-15T02:55:17.789Z,17.19
2023-08-15T02:55:54.281Z,17.19
2023-08-15T02:56:27.665Z,17.19
2023-08-15T02:57:01.007Z,17.17
2023-08-15T02:57:34.673Z,17.15
2023-08-15T02:58:08.089Z,17.14
2023-08-15T02:58:42.191Z,17.12
2023-08-15T02:59:15.402Z,17.11
2023-08-15T02:59:48.664Z,17.10
2023-08-15T03:00:22.242Z,17.08
2023-08-15T03:00:55.646Z,17.08
2023-08-15T03:01:29.017Z,17.07
2023-08-15T03:02:03.718Z,17.05
2023-08-15T03:02:37.309Z,17.05
2023-08-15T03:03:11.142Z,17.06
2023-08-15T03:03:44.546Z,17.07
2023-08-15T03:04:17.864Z,17.06
2023-08-15T03:04:51.173Z,17.04
2023-08-15T03:05:24.365Z,17.05
2023-08-15T03:06:04.966Z,17.05
2023-08-15T03:06:38.744Z,17.06
2023-08-15T03:07:11.992Z,17.05
2023-08-15T03:07:45.293Z,17.04
2023-08-15T03:08:18.616Z,17.05
2023-08-15T03:08:51.903Z,17.04
2023-08-15T03:09:25.161Z,17.05
2023-08-15T03:09:58.445Z,17.06
2023-08-15T03:10:34.698Z,17.05
2023-08-15T03:11:08.031Z,17.04
2023-08-15T03:11:41.305Z,17.04
2023-08-15T03:12:14.609Z,17.03
2023-08-15T03:12:47.849Z,17.01
2023-08-15T03:13:21.098Z,17.03
2023-08-15T03:13:54.610Z,17.03
2023-08-15T03:14:30.831Z,17.02
2023-08-15T03:15:05.379Z,17.02
2023-08-15T03:15:39.135Z,17.02
2023-08-15T03:16:12.815Z,17.02
2023-08-15T03:16:46.239Z,17.03
2023-08-15T03:17:20.988Z,17.02
2023-08-15T03:17:55.552Z,17.02
2023-08-15T03:18:28.930Z,17.01
2023-08-15T03:19:02.226Z,17.01
2023-08-15T03:19:36.114Z,16.99
2023-08-15T03:20:10.611Z,17.00
2023-08-15T03:20:43.899Z,17.00
2023-08-15T03:21:17.987Z,17.01
2023-08-15T03:21:51.367Z,16.99
2023-08-15T03:22:24.735Z,17.01
2023-08-15T03:22:58.084Z,17.01
2023-08-15T03:23:32.033Z,17.01
2023-08-15T03:24:05.636Z,17.00
2023-08-15T03:24:39.468Z,17.00
2023-08-15T03:25:12.830Z,16.90
2023-08-15T03:25:46.030Z,16.98
2023-08-15T03:26:19.531Z,16.99
2023-08-15T03:26:52.929Z,16.98
2023-08-15T03:27:26.259Z,16.98
2023-08-15T03:27:59.528Z,16.98
2023-08-15T03:28:35.326Z,16.98
2023-08-15T03:29:08.691Z,16.96
2023-08-15T03:29:42.012Z,16.96
2023-08-15T03:30:15.397Z,16.94
2023-08-15T03:30:48.877Z,16.95
2023-08-15T03:31:23.300Z,16.95
2023-08-15T03:32:01.210Z,16.93
2023-08-15T03:32:36.615Z,16.93
2023-08-15T03:33:10.314Z,16.93
2023-08-15T03:33:43.645Z,16.93
2023-08-15T03:34:17.417Z,16.93
2023-08-15T03:34:51.122Z,16.93
2023-08-15T03:35:25.012Z,16.93
2023-08-15T03:35:58.374Z,16.92
2023-08-15T03:36:31.679Z,16.93
2023-08-15T03:37:05.186Z,16.93
2023-08-15T03:37:38.448Z,16.92
2023-08-15T03:38:11.957Z,16.91
2023-08-15T03:38:45.364Z,16.90
2023-08-15T03:39:18.694Z,16.90
2023-08-15T03:39:51.999Z,16.90
2023-08-15T03:40:25.343Z,16.89
2023-08-15T03:41:06.575Z,16.89
2023-08-15T03:41:39.756Z,16.86
2023-08-15T03:42:12.993Z,16.86
2023-08-15T03:42:46.243Z,16.85
2023-08-15T03:43:19.427Z,16.84
2023-08-15T03:43:52.729Z,16.84
2023-08-15T03:44:26.008Z,16.84
2023-08-15T03:44:59.390Z,16.82
2023-08-15T03:45:32.878Z,16.82
2023-08-15T03:46:08.131Z,16.80
2023-08-15T03:46:42.192Z,16.79
2023-08-15T03:47:15.457Z,16.77
2023-08-15T03:47:51.193Z,16.76
2023-08-15T03:48:24.525Z,16.75
2023-08-15T03:48:57.878Z,16.74
2023-08-15T03:49:33.255Z,16.73
2023-08-15T03:50:06.747Z,16.71
2023-08-15T03:50:40.200Z,16.70
2023-08-15T03:51:22.778Z,16.70
2023-08-15T03:52:06.230Z,16.65
2023-08-15T03:52:39.626Z,16.63
2023-08-15T03:53:12.982Z,16.62
2023-08-15T03:53:47.496Z,16.61
2023-08-15T03:54:20.857Z,16.61
2023-08-15T03:54:54.265Z,16.61
2023-08-15T03:55:29.778Z,16.62
2023-08-15T03:56:03.170Z,16.63
2023-08-15T03:56:37.432Z,16.62
2023-08-15T03:57:10.730Z,16.62
2023-08-15T03:57:44.058Z,16.63
2023-08-15T03:58:18.555Z,16.63
2023-08-15T03:58:51.852Z,16.64
2023-08-15T03:59:25.101Z,16.64
2023-08-15T03:59:58.318Z,16.63
2023-08-15T04:00:31.658Z,16.64
2023-08-15T04:01:05.509Z,16.64
2023-08-15T04:01:39.052Z,16.64
2023-08-15T04:02:12.372Z,16.65
2023-08-15T04:02:46.446Z,16.64
2023-08-15T04:03:20.010Z,16.64
2023-08-15T04:03:53.424Z,16.64
2023-08-15T04:04:26.770Z,16.62
2023-08-15T04:05:00.136Z,16.62
2023-08-15T04:05:33.474Z,16.64
2023-08-15T04:06:06.729Z,16.63
2023-08-15T04:06:40.112Z,16.64
2023-08-15T04:07:13.367Z,16.64
2023-08-15T04:07:46.862Z,16.63
2023-08-15T04:08:20.164Z,16.63
2023-08-15T04:08:53.505Z,16.62
2023-08-15T04:09:27.967Z,16.61
2023-08-15T04:10:01.369Z,16.59
2023-08-15T04:10:40.913Z,16.57
2023-08-15T04:11:14.387Z,16.56
2023-08-15T04:11:48.862Z,16.55
2023-08-15T04:12:22.085Z,16.53
2023-08-15T04:12:56.103Z,16.52
2023-08-15T04:13:29.444Z,16.50
2023-08-15T04:14:02.786Z,16.49
2023-08-15T04:14:36.165Z,16.48
2023-08-15T04:15:10.111Z,16.47
2023-08-15T04:15:43.466Z,16.47
2023-08-15T04:16:16.922Z,16.45
2023-08-15T04:16:50.213Z,16.45
2023-08-15T04:17:23.835Z,16.43
2023-08-15T04:17:57.277Z,16.42
2023-08-15T04:18:30.653Z,16.44
2023-08-15T04:19:04.164Z,16.43
2023-08-15T04:19:37.664Z,16.42
2023-08-15T04:20:13.662Z,16.42
2023-08-15T04:20:49.307Z,16.41
2023-08-15T04:21:22.582Z,16.41
2023-08-15T04:21:55.901Z,16.40
2023-08-15T04:22:29.226Z,16.41
2023-08-15T04:23:04.183Z,16.41
2023-08-15T04:23:37.418Z,16.41
2023-08-15T04:24:10.737Z,16.42
2023-08-15T04:24:44.164Z,16.43
2023-08-15T04:25:17.971Z,16.45
2023-08-15T04:25:51.346Z,16.46
2023-08-15T04:26:24.952Z,16.46
2023-08-15T04:27:00.863Z,16.45
2023-08-15T04:27:34.360Z,16.46
2023-08-15T04:28:08.299Z,16.45
2023-08-15T04:28:42.917Z,16.44
2023-08-15T04:29:16.270Z,16.43
2023-08-15T04:29:49.565Z,16.44
2023-08-15T04:30:23.009Z,16.42
2023-08-15T04:30:56.370Z,16.43
2023-08-15T04:31:29.753Z,16.43
2023-08-15T04:32:03.207Z,16.43
2023-08-15T04:32:37.161Z,16.44
2023-08-15T04:33:10.622Z,16.45
2023-08-15T04:33:43.991Z,16.47
2023-08-15T04:34:17.479Z,16.48
2023-08-15T04:34:50.725Z,16.48
2023-08-15T04:35:25.914Z,16.50
2023-08-15T04:35:59.299Z,16.50
2023-08-15T04:36:32.554Z,16.50
2023-08-15T04:37:06.266Z,16.51
2023-08-15T04:37:39.896Z,16.52
2023-08-15T04:38:15.762Z,16.53
2023-08-15T04:38:49.119Z,16.52
2023-08-15T04:39:23.048Z,16.52
2023-08-15T04:39:56.500Z,16.52
2023-08-15T04:40:35.337Z,16.51
2023-08-15T04:41:08.761Z,16.51
2023-08-15T04:41:43.347Z,16.51
2023-08-15T04:42:17.171Z,16.51
2023-08-15T04:42:51.712Z,16.52
2023-08-15T04:43:25.101Z,16.51
2023-08-15T04:43:58.875Z,16.51
2023-08-15T04:44:33.115Z,16.51
2023-08-15T04:45:06.845Z,16.51
2023-08-15T04:45:45.376Z,16.51
2023-08-15T04:46:19.334Z,16.51
2023-08-15T04:46:52.791Z,16.51
2023-08-15T04:47:26.152Z,16.52
2023-08-15T04:47:59.827Z,16.52
2023-08-15T04:48:33.284Z,16.52
2023-08-15T04:49:06.636Z,16.53
2023-08-15T04:49:40.189Z,16.52
2023-08-15T04:50:13.690Z,16.53
2023-08-15T04:50:47.256Z,16.54
2023-08-15T04:51:20.619Z,16.54
2023-08-15T04:51:53.993Z,16.55
2023-08-15T04:52:27.384Z,16.55
2023-08-15T04:53:00.821Z,16.56
2023-08-15T04:53:34.203Z,16.58
2023-08-15T04:54:09.147Z,16.59
2023-08-15T04:54:42.454Z,16.59
2023-08-15T04:55:16.087Z,16.61
2023-08-15T04:55:49.422Z,16.61
2023-08-15T04:56:23.908Z,16.60
2023-08-15T04:56:57.216Z,16.61
2023-08-15T04:57:30.447Z,16.61
2023-08-15T04:58:04.254Z,16.60
2023-08-15T04:58:37.552Z,16.61
2023-08-15T04:59:10.778Z,16.62
2023-08-15T04:59:44.144Z,16.62
2023-08-15T05:00:20.534Z,16.64
2023-08-15T05:00:54.944Z,16.65
2023-08-15T05:01:28.279Z,16.67
2023-08-15T05:02:01.601Z,16.68
2023-08-15T05:02:35.504Z,16.71
2023-08-15T05:03:09.212Z,16.72
2023-08-15T05:03:42.725Z,16.72
2023-08-15T05:04:16.096Z,16.75
2023-08-15T05:04:49.446Z,16.76
2023-08-15T05:05:22.896Z,16.77
2023-08-15T05:05:56.470Z,16.80
2023-08-15T05:06:29.875Z,16.82
2023-08-15T05:07:03.298Z,16.83
2023-08-15T05:07:37.360Z,16.85
2023-08-15T05:08:10.704Z,16.86
2023-08-15T05:08:44.025Z,16.87
2023-08-15T05:09:18.595Z,16.89
2023-08-15T05:09:51.776Z,16.91
2023-08-15T05:10:25.010Z,16.92
2023-08-15T05:10:58.336Z,16.94
2023-08-15T05:11:31.868Z,16.95
2023-08-15T05:12:05.393Z,16.97
2023-08-15T05:12:38.780Z,16.98
2023-08-15T05:13:12.198Z,17.00
2023-08-15T05:13:45.604Z,17.01
2023-08-15T05:14:18.875Z,17.02
2023-08-15T05:14:52.164Z,17.04
2023-08-15T05:15:25.490Z,17.05
2023-08-15T05:15:58.866Z,17.06
2023-08-15T05:16:32.260Z,17.06
2023-08-15T05:17:05.894Z,17.08
2023-08-15T05:17:39.324Z,17.09
2023-08-15T05:18:16.755Z,17.11
2023-08-15T05:18:50.174Z,17.12
2023-08-15T05:19:23.784Z,17.13
2023-08-15T05:19:56.990Z,17.14
2023-08-15T05:20:31.214Z,17.16
2023-08-15T05:21:04.626Z,17.17
2023-08-15T05:21:38.150Z,17.18
2023-08-15T05:22:11.434Z,17.20
2023-08-15T05:22:45.812Z,17.21
2023-08-15T05:23:21.191Z,17.21
2023-08-15T05:23:54.892Z,17.20
2023-08-15T05:24:28.448Z,17.21
2023-08-15T05:25:02.391Z,17.22
2023-08-15T05:25:36.661Z,17.24
2023-08-15T05:26:10.606Z,17.26
2023-08-15T05:26:44.135Z,17.28
2023-08-15T05:27:17.458Z,17.28
2023-08-15T05:27:51.993Z,17.30
2023-08-15T05:28:25.300Z,17.31
2023-08-15T05:28:58.600Z,17.33
2023-08-15T05:29:35.196Z,17.35
2023-08-15T05:30:09.383Z,17.37
2023-08-15T05:30:43.854Z,17.38
2023-08-15T05:31:17.173Z,17.40
2023-08-15T05:31:50.507Z,17.42
2023-08-15T05:32:23.797Z,17.43
2023-08-15T05:32:57.130Z,17.46
2023-08-15T05:33:30.970Z,17.48
2023-08-15T05:34:04.543Z,17.49
2023-08-15T05:34:37.996Z,17.51
2023-08-15T05:35:11.867Z,17.53
2023-08-15T05:35:45.245Z,17.55
2023-08-15T05:36:18.556Z,17.56
2023-08-15T05:36:52.490Z,17.59
2023-08-15T05:37:25.823Z,17.62
2023-08-15T05:37:59.610Z,17.64
2023-08-15T05:38:32.899Z,17.66
2023-08-15T05:39:06.353Z,17.68
2023-08-15T05:39:40.606Z,17.69
2023-08-15T05:40:13.969Z,17.70
2023-08-15T05:40:47.253Z,17.72
2023-08-15T05:41:20.438Z,17.74
2023-08-15T05:41:53.769Z,17.76
2023-08-15T05:42:27.152Z,17.78
2023-08-15T05:43:00.663Z,17.80
2023-08-15T05:43:34.014Z,17.81
2023-08-15T05:44:07.459Z,17.84
2023-08-15T05:44:40.721Z,17.86
2023-08-15T05:45:15.846Z,17.87
2023-08-15T05:45:50.166Z,17.89
2023-08-15T05:46:23.492Z,17.92
2023-08-15T05:46:56.812Z,17.94
2023-08-15T05:47:30.287Z,17.96
2023-08-15T05:48:05.375Z,17.98
2023-08-15T05:48:39.821Z,18.00
2023-08-15T05:49:13.059Z,18.03
2023-08-15T05:49:46.454Z,18.05
2023-08-15T05:50:19.723Z,18.08
2023-08-15T05:50:53.053Z,18.10
2023-08-15T05:51:26.472Z,18.10
2023-08-15T05:52:01.403Z,18.15
2023-08-15T05:52:35.114Z,18.17
2023-08-15T05:53:08.318Z,18.19
2023-08-15T05:53:41.863Z,18.21
2023-08-15T05:54:15.203Z,18.25
2023-08-15T05:54:48.402Z,18.27
2023-08-15T05:55:21.699Z,18.30
2023-08-15T05:55:54.981Z,18.31
2023-08-15T05:56:28.263Z,18.34
2023-08-15T05:57:01.537Z,18.36
2023-08-15T05:57:35.049Z,18.39
2023-08-15T05:58:08.355Z,18.38
2023-08-15T05:58:41.625Z,18.45
2023-08-15T05:59:14.849Z,18.47
2023-08-15T05:59:48.105Z,18.49
2023-08-15T06:00:21.422Z,18.52
2023-08-15T06:00:55.386Z,18.54
2023-08-15T06:01:28.833Z,18.57
2023-08-15T06:02:02.137Z,18.59
2023-08-15T06:02:37.904Z,18.62
2023-08-15T06:03:11.866Z,18.64
2023-08-15T06:03:52.473Z,18.66
2023-08-15T06:04:26.648Z,18.68
2023-08-15T06:05:00.116Z,18.72
2023-08-15T06:05:33.567Z,18.74
2023-08-15T06:06:07.019Z,18.78
2023-08-15T06:06:40.375Z,18.80
2023-08-15T06:07:16.658Z,18.84
2023-08-15T06:07:49.966Z,18.86
2023-08-15T06:08:59.343Z,18.93
2023-08-15T06:09:32.658Z,18.93
2023-08-15T06:10:07.154Z,18.97
2023-08-15T06:10:40.457Z,19.00
2023-08-15T06:11:13.818Z,19.03
2023-08-15T06:11:47.272Z,19.06
2023-08-15T06:12:20.608Z,19.09
2023-08-15T06:12:54.085Z,19.12
2023-08-15T06:13:27.592Z,19.15
2023-08-15T06:14:00.945Z,19.17
2023-08-15T06:14:35.794Z,19.20
2023-08-15T06:15:09.382Z,19.23
2023-08-15T06:15:42.699Z,19.27
2023-08-15T06:16:16.036Z,19.28
2023-08-15T06:16:49.881Z,19.32
2023-08-15T06:17:23.491Z,19.35
2023-08-15T06:17:57.088Z,19.37
2023-08-15T06:18:30.406Z,19.41
2023-08-15T06:19:03.741Z,19.43
2023-08-15T06:19:37.365Z,19.47
2023-08-15T06:20:11.671Z,19.51
2023-08-15T06:20:45.529Z,19.54
2023-08-15T06:21:18.842Z,19.58
2023-08-15T06:21:52.271Z,19.63
2023-08-15T06:22:25.620Z,19.69
2023-08-15T06:22:58.988Z,19.74
2023-08-15T06:23:32.377Z,19.78
2023-08-15T06:24:06.046Z,19.84
2023-08-15T06:24:39.476Z,19.90
2023-08-15T06:25:13.125Z,19.94
2023-08-15T06:25:46.632Z,20.05
2023-08-15T06:26:20.064Z,20.14
2023-08-15T06:26:53.412Z,20.20
2023-08-15T06:27:26.844Z,20.30
2023-08-15T06:28:00.056Z,20.41
2023-08-15T06:28:33.504Z,20.46
2023-08-15T06:29:07.363Z,20.57
2023-08-15T06:29:40.701Z,20.61
2023-08-15T06:30:14.453Z,20.66
2023-08-15T06:30:47.850Z,20.74
2023-08-15T06:31:21.282Z,20.81
2023-08-15T06:31:55.146Z,20.86
2023-08-15T06:32:29.773Z,20.91
2023-08-15T06:33:03.182Z,20.97
2023-08-15T06:33:36.794Z,21.05
2023-08-15T06:34:10.624Z,21.11
2023-08-15T06:34:43.896Z,21.17
2023-08-15T06:35:17.174Z,21.23
2023-08-15T06:35:50.376Z,21.32
2023-08-15T06:36:23.839Z,21.37
2023-08-15T06:36:57.205Z,21.40
2023-08-15T06:37:30.565Z,21.46
2023-08-15T06:38:03.897Z,21.52
2023-08-15T06:38:37.448Z,21.62
2023-08-15T06:39:10.688Z,21.75
2023-08-15T06:39:43.965Z,21.93
2023-08-15T06:40:17.340Z,22.13
2023-08-15T06:40:51.033Z,22.30
2023-08-15T06:41:24.278Z,22.50
2023-08-15T06:41:58.146Z,22.73
2023-08-15T06:42:31.326Z,22.96
2023-08-15T06:43:04.886Z,23.15
2023-08-15T06:43:38.215Z,23.32
2023-08-15T06:44:11.531Z,23.48
2023-08-15T06:44:45.067Z,23.64
2023-08-15T06:45:20.399Z,23.83
2023-08-15T06:45:53.626Z,24.03
2023-08-15T06:46:26.908Z,24.15
2023-08-15T06:47:00.616Z,24.30
2023-08-15T06:47:33.880Z,24.44
2023-08-15T06:48:07.542Z,24.63
2023-08-15T06:48:40.949Z,24.71
2023-08-15T06:49:15.412Z,24.90
2023-08-15T06:49:48.810Z,25.07
2023-08-15T06:50:22.361Z,25.19
2023-08-15T06:50:55.621Z,25.35
2023-08-15T06:51:29.207Z,25.46
2023-08-15T06:52:02.537Z,25.60
2023-08-15T06:52:36.420Z,25.73
2023-08-15T06:53:09.642Z,25.84
2023-08-15T06:53:46.109Z,25.91
2023-08-15T06:54:19.405Z,26.05
2023-08-15T06:54:52.711Z,26.20
2023-08-15T06:55:26.555Z,26.34
2023-08-15T06:56:00.015Z,26.45
2023-08-15T06:56:33.348Z,26.51
2023-08-15T06:57:08.694Z,26.60
2023-08-15T06:57:42.001Z,26.69
2023-08-15T06:58:15.282Z,26.76
2023-08-15T06:58:48.600Z,26.88
2023-08-15T06:59:24.969Z,26.99
2023-08-15T06:59:58.341Z,27.03
2023-08-15T07:00:31.694Z,27.07
2023-08-15T07:01:06.389Z,27.18
2023-08-15T07:01:47.729Z,27.31
2023-08-15T07:02:22.454Z,27.38
2023-08-15T07:02:55.726Z,27.41
2023-08-15T07:03:29.363Z,27.51
2023-08-15T07:04:02.982Z,27.57
2023-08-15T07:04:41.593Z,27.59
2023-08-15T07:05:15.127Z,27.65
2023-08-15T07:05:48.615Z,27.69
2023-08-15T07:06:21.976Z,27.74
2023-08-15T07:06:58.321Z,27.76
2023-08-15T07:07:31.842Z,27.86
2023-08-15T07:08:06.227Z,27.96
2023-08-15T07:08:39.697Z,28.00
2023-08-15T07:09:13.025Z,28.03
2023-08-15T07:09:47.858Z,28.08
2023-08-15T07:10:21.607Z,28.10
2023-08-15T07:10:58.143Z,28.11
2023-08-15T07:11:31.468Z,28.16
2023-08-15T07:12:06.366Z,28.19
2023-08-15T07:12:39.940Z,28.27
2023-08-15T07:13:13.541Z,28.36
2023-08-15T07:13:47.026Z,28.39
2023-08-15T07:14:20.337Z,28.42
2023-08-15T07:14:53.909Z,28.45
2023-08-15T07:15:27.470Z,28.46
2023-08-15T07:16:00.953Z,28.50
2023-08-15T07:16:34.566Z,28.51
2023-08-15T07:17:08.069Z,28.52
2023-08-15T07:17:41.893Z,28.58
2023-08-15T07:18:15.212Z,28.61
2023-08-15T07:19:21.880Z,28.69
2023-08-15T07:19:55.236Z,28.67
2023-08-15T07:20:31.364Z,28.67
2023-08-15T07:21:07.642Z,28.73
2023-08-15T07:21:42.813Z,28.80
2023-08-15T07:22:16.266Z,28.78
2023-08-15T07:22:49.611Z,28.82
2023-08-15T07:23:22.996Z,28.82
2023-08-15T07:23:56.616Z,28.95
2023-08-15T07:24:29.961Z,29.06
2023-08-15T07:25:03.363Z,29.09